»·PEaware :: UAL576 KSLC-KPHX

UAL576 :: KSLC-KPHX

FLIGHT INFORMATION

Flight Status: Arrived
Operator:
United Airlines
More flights by this operator :: More flights under this callsign
Pilot: Anonymous 8274 (8274)
Aircraft: BOEING 737-300
(B733)
More flights by this aircraft type
Origin: KSLC Salt Lake City Intl
United States
Destination: KPHX Phoenix Sky Harbor Intl
United States
More flights between these airports :: More routes between these airports
Route: +EDETH5 MLF CORKR TENTS BRUSR1
File this flight plan on PilotEdge
Remarks:
Altitude:
(Current/Filed)
29,000ft
Speed:
(Current/Filed)
450kts
Departed: 04-Oct-17 04:17 PM
Arrived: 04-Oct-17 05:43 PM
Distance/Time
Traveled:
441nm/1:26
Distance/Time
To Go:
Arrived

Flight Plot

Page will automatically refresh every two minutes.

Flight plan parsing failed; only flown route is shown


Map Options




Map Legend


Flown Route
Filed Route
Departure Airport
Arrival Airport
Navaid (VOR, NDB)
Fix

Horizontal Profiles

Position Reports

Time Latitude Longitude Heading Altitude Ground
Speed
04-Oct-17 15:26 40.789280 -111.985263 165 4234ft 0kts
04-Oct-17 15:27 40.789280 -111.985263 165 4234ft 0kts
04-Oct-17 15:28 40.789280 -111.985263 165 4234ft 0kts
04-Oct-17 15:29 40.789280 -111.985263 165 4234ft 0kts
04-Oct-17 15:30 40.789280 -111.985263 165 4234ft 0kts
04-Oct-17 15:31 40.789280 -111.985263 165 4234ft 0kts
04-Oct-17 15:32 40.789280 -111.985263 165 4234ft 0kts
04-Oct-17 15:33 40.789280 -111.985263 165 4234ft 0kts
04-Oct-17 15:34 40.789280 -111.985263 165 4234ft 0kts
04-Oct-17 15:35 40.789280 -111.985263 165 4234ft 0kts
04-Oct-17 15:36 40.789279 -111.985263 165 4234ft 0kts
04-Oct-17 15:37 40.789279 -111.985263 165 4234ft 0kts
04-Oct-17 15:38 40.789279 -111.985263 165 4234ft 0kts
04-Oct-17 15:39 40.789279 -111.985263 165 4234ft 0kts
04-Oct-17 15:40 40.789279 -111.985263 165 4234ft 0kts
04-Oct-17 15:41 40.789279 -111.985263 165 4234ft 0kts
04-Oct-17 15:42 40.789279 -111.985263 165 4234ft 0kts
04-Oct-17 15:43 40.789279 -111.985263 165 4234ft 0kts
04-Oct-17 15:44 40.789279 -111.985263 165 4234ft 0kts
04-Oct-17 15:45 40.789279 -111.985263 165 4234ft 0kts
04-Oct-17 15:46 40.789279 -111.985263 165 4234ft 0kts
04-Oct-17 15:47 40.789279 -111.985263 165 4234ft 0kts
04-Oct-17 15:48 40.789279 -111.985263 165 4234ft 0kts
04-Oct-17 15:49 40.789279 -111.985263 165 4234ft 0kts
04-Oct-17 15:50 40.789279 -111.985263 165 4234ft 0kts
04-Oct-17 15:51 40.789279 -111.985263 165 4234ft 0kts
04-Oct-17 15:52 40.789279 -111.985263 165 4234ft 0kts
04-Oct-17 15:53 40.789279 -111.985263 165 4234ft 0kts
04-Oct-17 15:54 40.789279 -111.985263 165 4234ft 0kts
04-Oct-17 15:55 40.789279 -111.985263 165 4234ft 0kts
04-Oct-17 15:56 40.789279 -111.985263 165 4234ft 0kts
04-Oct-17 15:57 40.789279 -111.985263 165 4234ft 0kts
04-Oct-17 15:58 40.789279 -111.985263 165 4234ft 0kts
04-Oct-17 15:59 40.789279 -111.985263 165 4234ft 0kts
04-Oct-17 16:00 40.789279 -111.985263 165 4234ft 0kts
04-Oct-17 16:01 40.789279 -111.985263 165 4234ft 0kts
04-Oct-17 16:02 40.789573 -111.985366 165 4234ft 2kts
04-Oct-17 16:03 40.789878 -111.985761 79 4234ft 2kts
04-Oct-17 16:04 40.789810 -111.985949 56 4234ft 0kts
04-Oct-17 16:05 40.789812 -111.985945 56 4234ft 0kts
04-Oct-17 16:06 40.789812 -111.985945 56 4234ft 0kts
04-Oct-17 16:07 40.789812 -111.985945 56 4234ft 0kts
04-Oct-17 16:08 40.789890 -111.985774 62 4234ft 3kts
04-Oct-17 16:09 40.789928 -111.981829 84 4234ft 13kts
04-Oct-17 16:10 40.789685 -111.978640 84 4234ft 0kts
04-Oct-17 16:11 40.789685 -111.978640 84 4234ft 0kts
04-Oct-17 16:12 40.789629 -111.977212 134 4234ft 15kts
04-Oct-17 16:13 40.781780 -111.976128 174 4234ft 37kts
04-Oct-17 16:14 40.774640 -111.974730 143 4234ft 0kts
04-Oct-17 16:15 40.774640 -111.974730 143 4234ft 0kts
04-Oct-17 16:16 40.774640 -111.974730 143 4234ft 0kts
04-Oct-17 16:17 40.774640 -111.974730 143 4234ft 0kts
04-Oct-17 16:18 40.774640 -111.974730 143 4234ft 0kts
04-Oct-17 16:19 40.774639 -111.974728 143 4234ft 0kts
04-Oct-17 16:20 40.775346 -111.973212 0 4234ft 10kts
04-Oct-17 16:21 40.795866 -111.975743 353 4379ft 146kts
04-Oct-17 16:22 40.837904 -111.982764 355 5944ft 157kts
04-Oct-17 16:23 40.868107 -112.032553 258 6876ft 247kts
04-Oct-17 16:24 40.827920 -112.118340 256 8905ft 290kts
04-Oct-17 16:25 40.807099 -112.225509 243 10531ft 340kts
04-Oct-17 16:26 40.720087 -112.283563 192 12412ft 380kts
04-Oct-17 16:27 40.615230 -112.303446 192 15424ft 374kts
04-Oct-17 16:28 40.516067 -112.321825 194 18273ft 362kts
04-Oct-17 16:29 40.415737 -112.342835 195 20358ft 369kts
04-Oct-17 16:30 40.316668 -112.372219 212 22266ft 363kts
04-Oct-17 16:31 40.227375 -112.435936 212 23974ft 369kts
04-Oct-17 16:32 40.139171 -112.498145 212 25554ft 372kts
04-Oct-17 16:33 40.047703 -112.562547 212 27043ft 376kts
04-Oct-17 16:34 39.956017 -112.626921 213 28476ft 375kts
04-Oct-17 16:35 39.867597 -112.688902 212 29194ft 373kts
04-Oct-17 16:36 39.777043 -112.752063 212 29185ft 371kts
04-Oct-17 16:37 39.700959 -112.805020 212 29186ft 372kts
04-Oct-17 16:38 39.597868 -112.831842 194 29190ft 388kts
04-Oct-17 16:39 39.490984 -112.847470 194 29186ft 387kts
04-Oct-17 16:40 39.384446 -112.863316 194 29186ft 388kts
04-Oct-17 16:41 39.259901 -112.881794 194 29186ft 388kts
04-Oct-17 16:42 39.171042 -112.894938 194 29190ft 387kts
04-Oct-17 16:43 39.064287 -112.910688 194 29186ft 387kts
04-Oct-17 16:44 38.957860 -112.926338 194 29186ft 387kts
04-Oct-17 16:45 38.853640 -112.941568 194 29185ft 388kts
04-Oct-17 16:46 38.747652 -112.957033 194 29160ft 388kts
04-Oct-17 16:47 38.640498 -112.972644 193 29160ft 389kts
04-Oct-17 16:48 38.532926 -112.988272 193 29159ft 389kts
04-Oct-17 16:49 38.425614 -113.003815 193 29159ft 390kts
04-Oct-17 16:50 38.316676 -113.002191 176 29159ft 411kts
04-Oct-17 16:51 38.205908 -112.970426 177 29159ft 409kts
04-Oct-17 16:52 38.095074 -112.939755 177 29161ft 410kts
04-Oct-17 16:53 37.984468 -112.909258 177 29158ft 410kts
04-Oct-17 16:54 37.875830 -112.879408 176 29129ft 411kts
04-Oct-17 16:55 37.764660 -112.848959 176 29160ft 411kts
04-Oct-17 16:56 37.653100 -112.818488 176 29159ft 411kts
04-Oct-17 16:57 37.541580 -112.788118 176 29209ft 411kts
04-Oct-17 16:58 37.430117 -112.757859 176 29299ft 411kts
04-Oct-17 16:59 37.318489 -112.727655 176 29294ft 411kts
04-Oct-17 17:00 37.207001 -112.697572 176 29294ft 411kts
04-Oct-17 17:01 37.100465 -112.668912 176 29156ft 411kts
04-Oct-17 17:02 36.988527 -112.638890 176 29160ft 412kts
04-Oct-17 17:03 36.879591 -112.609765 176 29123ft 413kts
04-Oct-17 17:04 36.767624 -112.579923 176 29160ft 412kts
04-Oct-17 17:05 36.656058 -112.550264 176 29159ft 413kts
04-Oct-17 17:06 36.552331 -112.522769 176 29159ft 413kts
04-Oct-17 17:07 36.440135 -112.493066 176 29159ft 413kts
04-Oct-17 17:08 36.328426 -112.463662 176 29239ft 413kts
04-Oct-17 17:09 36.215937 -112.434106 176 29240ft 413kts
04-Oct-17 17:10 36.103711 -112.404708 176 29239ft 414kts
04-Oct-17 17:11 35.990685 -112.408401 190 29252ft 408kts
04-Oct-17 17:12 35.882645 -112.418140 190 29202ft 409kts
04-Oct-17 17:13 35.769708 -112.427952 190 29241ft 408kts
04-Oct-17 17:14 35.657249 -112.437728 189 29241ft 408kts
04-Oct-17 17:15 35.543981 -112.447539 190 29239ft 407kts
04-Oct-17 17:16 35.430237 -112.440308 177 29240ft 420kts
04-Oct-17 17:17 35.315304 -112.417294 178 29241ft 419kts
04-Oct-17 17:18 35.200342 -112.394741 177 29249ft 419kts
04-Oct-17 17:19 35.085893 -112.370028 177 29268ft 419kts
04-Oct-17 17:20 34.973254 -112.345535 177 29254ft 419kts
04-Oct-17 17:21 34.864164 -112.321747 177 29137ft 420kts
04-Oct-17 17:22 34.753085 -112.297175 173 29165ft 419kts
04-Oct-17 17:23 34.638276 -112.272150 175 29162ft 421kts
04-Oct-17 17:24 34.523711 -112.247029 174 29159ft 421kts
04-Oct-17 17:25 34.409299 -112.220565 173 29146ft 402kts
04-Oct-17 17:26 34.301712 -112.192659 173 29170ft 413kts
04-Oct-17 17:27 34.193003 -112.164451 173 27664ft 399kts
04-Oct-17 17:28 34.084952 -112.136277 167 24189ft 389kts
04-Oct-17 17:29 33.985043 -112.095807 165 22527ft 364kts
04-Oct-17 17:30 33.893457 -112.058544 165 19765ft 350kts
04-Oct-17 17:31 33.812010 -112.025627 164 17303ft 338kts
04-Oct-17 17:32 33.724839 -111.990354 164 14617ft 327kts
04-Oct-17 17:33 33.640660 -111.956368 163 11995ft 317kts
04-Oct-17 17:34 33.561303 -111.924301 162 10144ft 287kts
04-Oct-17 17:35 33.523526 -111.853711 86 7728ft 293kts
04-Oct-17 17:36 33.521770 -111.758047 88 7016ft 287kts
04-Oct-17 17:37 33.523240 -111.667281 88 6970ft 242kts
04-Oct-17 17:38 33.489004 -111.620262 179 5546ft 217kts
04-Oct-17 17:39 33.443481 -111.649733 247 4448ft 175kts
04-Oct-17 17:40 33.436595 -111.704338 264 3563ft 165kts
04-Oct-17 17:41 33.431281 -111.758153 266 3536ft 164kts
04-Oct-17 17:42 33.428097 -111.812245 270 3565ft 159kts
04-Oct-17 17:43 33.428662 -111.865557 271 3445ft 163kts
04-Oct-17 17:44 33.428651 -111.921277 268 2531ft 169kts
04-Oct-17 17:45 33.428752 -111.976071 270 1589ft 159kts
04-Oct-17 17:46 33.428866 -112.022188 269 1116ft 61kts
04-Oct-17 17:47 33.429851 -112.025334 341 1116ft 1kts
04-Oct-17 17:48 33.432140 -112.025013 80 1116ft 0kts
04-Oct-17 17:49 33.432140 -112.025013 80 1116ft 0kts
04-Oct-17 17:50 33.432835 -112.024276 66 1116ft 13kts
04-Oct-17 17:51 33.432900 -112.018454 89 1116ft 23kts
04-Oct-17 17:52 33.432900 -112.010138 75 1116ft 13kts
04-Oct-17 17:53 33.434211 -112.009306 89 1116ft 0kts

Navigation Log

Ident Type
Flight plan parsing failed, navigation log unavailable